createdAt,value
2023-04-03T00:01:21.971Z,1.7
2023-04-03T00:04:24.024Z,1.7
2023-04-03T00:07:25.982Z,1.5
2023-04-03T00:10:27.934Z,1.6
2023-04-03T00:13:29.890Z,1.7
2023-04-03T00:16:31.912Z,1.2
2023-04-03T00:19:33.826Z,1.4
2023-04-03T00:22:35.831Z,1.5
2023-04-03T00:25:37.760Z,1.5
2023-04-03T00:28:39.714Z,1.6
2023-04-03T00:31:41.667Z,1.4
2023-04-03T00:34:43.754Z,1.4
2023-04-03T00:37:45.584Z,1.4
2023-04-03T00:40:47.603Z,1.6
2023-04-03T00:43:49.538Z,1.4
2023-04-03T00:46:51.498Z,1.5
2023-04-03T00:49:53.443Z,1.5
2023-04-03T00:52:55.421Z,1.7
2023-04-03T00:55:57.362Z,2.2
2023-04-03T00:58:59.340Z,1.7
2023-04-03T01:02:01.357Z,1.5
2023-04-03T01:05:03.261Z,1.6
2023-04-03T01:08:05.211Z,1.7
2023-04-03T01:11:07.173Z,1.3
2023-04-03T01:14:09.135Z,1.4
2023-04-03T01:17:11.097Z,1.3
2023-04-03T01:20:13.049Z,1.5
2023-04-03T01:23:17.893Z,1.3
2023-04-03T01:26:19.814Z,1.5
2023-04-03T01:29:21.854Z,1.5
2023-04-03T01:32:23.888Z,1.4
2023-04-03T01:35:25.777Z,1
2023-04-03T01:38:27.748Z,1.6
2023-04-03T01:41:29.732Z,1.6
2023-04-03T01:44:31.716Z,1.9
2023-04-03T01:47:33.704Z,1.6
2023-04-03T01:50:35.898Z,1.5
2023-04-03T01:53:37.600Z,1.4
2023-04-03T01:56:39.618Z,1.6
2023-04-03T01:59:41.617Z,1.4
2023-04-03T02:02:43.828Z,1.5
2023-04-03T02:05:45.622Z,1.8
2023-04-03T02:08:47.635Z,1.7
2023-04-03T02:11:49.560Z,1.5
2023-04-03T02:14:51.520Z,1.6
2023-04-03T02:17:53.550Z,1.5
2023-04-03T02:20:55.409Z,1.4
2023-04-03T02:23:57.378Z,1.4
2023-04-03T02:26:59.342Z,1.6
2023-04-03T02:30:01.307Z,1.4
2023-04-03T02:33:03.310Z,1.7
2023-04-03T02:36:05.248Z,1.4
2023-04-03T02:39:07.190Z,1.4
2023-04-03T02:42:09.175Z,1.4
2023-04-03T02:45:11.128Z,1.5
2023-04-03T02:48:13.087Z,1.2
2023-04-03T02:51:15.035Z,1.8
2023-04-03T02:54:16.999Z,1.4
2023-04-03T02:57:19.009Z,1.3
2023-04-03T03:00:20.949Z,1.6
2023-04-03T03:03:22.881Z,1.6
2023-04-03T03:06:24.856Z,1.5
2023-04-03T03:09:26.815Z,1.7
2023-04-03T03:12:28.782Z,1.3
2023-04-03T03:15:30.750Z,1.7
2023-04-03T03:18:32.722Z,1.5
2023-04-03T03:21:34.650Z,1.3
2023-04-03T03:24:36.603Z,1.3
2023-04-03T03:27:38.605Z,1.1
2023-04-03T03:30:40.540Z,1.3
2023-04-03T03:33:42.567Z,1.1
2023-04-03T03:36:44.522Z,1.2
2023-04-03T03:39:46.504Z,1.2
2023-04-03T03:42:48.466Z,1.3
2023-04-03T03:45:50.428Z,1.2
2023-04-03T03:48:52.388Z,1.2
2023-04-03T03:51:54.333Z,1.2
2023-04-03T03:54:56.287Z,1.3
2023-04-03T03:57:58.271Z,1.5
2023-04-03T04:01:00.224Z,1.4
2023-04-03T04:04:02.288Z,1.1
2023-04-03T04:07:04.164Z,1.4
2023-04-03T04:10:06.140Z,1.1
2023-04-03T04:13:08.130Z,1.3
2023-04-03T04:16:10.050Z,1.3
2023-04-03T04:19:12.215Z,1.1
2023-04-03T04:22:13.992Z,1.3
2023-04-03T04:25:15.930Z,1.3
2023-04-03T04:28:17.892Z,1.3
2023-04-03T04:31:19.881Z,1.2
2023-04-03T04:34:21.794Z,1.3
2023-04-03T04:37:23.763Z,1.4
2023-04-03T04:40:25.708Z,1.7
2023-04-03T04:43:27.667Z,1.2
2023-04-03T04:46:29.668Z,1.1
2023-04-03T04:49:31.611Z,1.4
2023-04-03T04:52:33.619Z,1.6
2023-04-03T04:55:35.725Z,1.3
2023-04-03T04:58:37.603Z,1.6
2023-04-03T05:01:39.533Z,1.6
2023-04-03T05:04:41.891Z,1.3
2023-04-03T05:07:43.521Z,1.6
2023-04-03T05:10:45.459Z,1.5
2023-04-03T05:13:47.412Z,1.3
2023-04-03T05:16:51.497Z,1.7
2023-04-03T05:19:51.322Z,1.8
2023-04-03T05:22:53.304Z,2
2023-04-03T05:25:55.251Z,1.6
2023-04-03T05:28:57.281Z,1.5
2023-04-03T05:31:59.260Z,1.4
2023-04-03T05:35:01.498Z,1.8
2023-04-03T05:38:03.150Z,1.7
2023-04-03T05:41:05.070Z,1.7
2023-04-03T05:44:07.070Z,1.4
2023-04-03T05:47:09.029Z,2.1
2023-04-03T05:50:11.028Z,1.7
2023-04-03T05:53:12.942Z,1.6
2023-04-03T05:56:14.899Z,2
2023-04-03T05:59:16.871Z,1.6
2023-04-03T06:02:18.859Z,1.7
2023-04-03T06:05:20.847Z,1.5
2023-04-03T06:08:22.770Z,1.8
2023-04-03T06:11:24.735Z,1.5
2023-04-03T06:14:26.694Z,1.6
2023-04-03T06:17:28.684Z,1.5
2023-04-03T06:20:30.614Z,1.8
2023-04-03T06:23:32.579Z,2.5
2023-04-03T06:26:34.544Z,1.8
2023-04-03T06:29:36.498Z,1.7
2023-04-03T06:32:38.467Z,1.6
2023-04-03T06:35:40.488Z,1.5
2023-04-03T06:38:42.335Z,2.1
2023-04-03T06:41:44.311Z,1.8
2023-04-03T06:44:46.274Z,1.9
2023-04-03T06:47:48.275Z,2.1
2023-04-03T06:50:50.182Z,1.4
2023-04-03T06:53:52.439Z,1.9
2023-04-03T06:56:54.142Z,1.8
2023-04-03T06:59:56.114Z,1.8
2023-04-03T07:02:58.073Z,1.6
2023-04-03T07:05:59.999Z,1.6
2023-04-03T07:09:01.942Z,1.7
2023-04-03T07:12:03.912Z,2.3
2023-04-03T07:15:05.870Z,1.8
2023-04-03T07:18:07.866Z,1.5
2023-04-03T07:21:09.813Z,1.9
2023-04-03T07:24:13.292Z,1.8
2023-04-03T07:27:13.748Z,2
2023-04-03T07:30:15.737Z,2
2023-04-03T07:33:17.651Z,1.8
2023-04-03T07:36:19.980Z,2.1
2023-04-03T07:39:21.580Z,1.8
2023-04-03T07:42:23.561Z,1.8
2023-04-03T07:45:25.563Z,1.8
2023-04-03T07:48:27.506Z,1.6
2023-04-03T07:51:29.466Z,1.8
2023-04-03T07:54:36.299Z,1.7
2023-04-03T07:57:33.504Z,1.7
2023-04-03T08:00:35.423Z,1.8
2023-04-03T08:03:37.468Z,1.5
2023-04-03T08:06:46.198Z,1.6
2023-04-03T08:09:41.327Z,1.3
2023-04-03T08:12:43.296Z,1.5
2023-04-03T08:15:45.251Z,1.9
2023-04-03T08:18:47.213Z,1.7
2023-04-03T08:21:49.201Z,1.6
2023-04-03T08:24:58.378Z,1.6
2023-04-03T08:27:53.058Z,1.3
2023-04-03T08:30:55.158Z,1.3
2023-04-03T08:33:58.710Z,1.5
2023-04-03T08:37:00.690Z,1.3
2023-04-03T08:40:02.640Z,1.5
2023-04-03T08:43:04.609Z,1.4
2023-04-03T08:46:06.619Z,1.5
2023-04-03T08:49:08.544Z,1.6
2023-04-03T08:52:10.517Z,1.4
2023-04-03T08:55:12.469Z,1.3
2023-04-03T08:58:14.439Z,1.6
2023-04-03T09:01:16.440Z,1.6
2023-04-03T09:04:18.476Z,1.4
2023-04-03T09:07:20.321Z,1.6
2023-04-03T09:10:22.298Z,1.5
2023-04-03T09:13:24.253Z,1.8
2023-04-03T09:16:26.281Z,1.5
2023-04-03T09:19:28.190Z,1.3
2023-04-03T09:22:30.294Z,1.4
2023-04-03T09:25:32.274Z,1.5
2023-04-03T09:28:39.072Z,1.8
2023-04-03T09:31:36.087Z,1.4
2023-04-03T09:34:38.025Z,1.6
2023-04-03T09:37:41.097Z,1.4
2023-04-03T09:40:41.926Z,1.6
2023-04-03T09:43:43.913Z,1.7
2023-04-03T09:46:45.940Z,2
2023-04-03T09:49:47.918Z,1.5
2023-04-03T09:52:49.874Z,1.7
2023-04-03T09:55:51.881Z,1.7
2023-04-03T09:58:53.857Z,1.7
2023-04-03T10:01:55.884Z,1.6
2023-04-03T10:05:08.681Z,1.3
2023-04-03T10:08:03.881Z,1.6
2023-04-03T10:11:01.752Z,2.1
2023-04-03T10:14:03.714Z,1.4
2023-04-03T10:17:05.669Z,1.6
2023-04-03T10:20:07.623Z,1.7
2023-04-03T10:23:09.582Z,1.9
2023-04-03T10:26:12.662Z,1.8
2023-04-03T10:29:13.532Z,2.2
2023-04-03T10:32:15.508Z,1.8
2023-04-03T10:35:17.437Z,1.9
2023-04-03T10:38:19.401Z,2.1
2023-04-03T10:41:21.389Z,2
2023-04-03T10:44:23.358Z,1.6
2023-04-03T10:47:25.364Z,1.8
2023-04-03T10:50:27.378Z,2.4
2023-04-03T10:53:29.332Z,2.4
2023-04-03T10:56:31.307Z,1.9
2023-04-03T10:59:33.296Z,1.8
2023-04-03T11:02:35.372Z,1.9
2023-04-03T11:05:37.372Z,2.2
2023-04-03T11:08:39.448Z,1.9
2023-04-03T11:11:41.319Z,1.7
2023-04-03T11:14:43.276Z,1.9
2023-04-03T11:17:45.292Z,1.7
2023-04-03T11:20:47.219Z,1.7
2023-04-03T11:23:50.147Z,1.7
2023-04-03T11:26:51.158Z,1.9
2023-04-03T11:29:53.159Z,1.8
2023-04-03T11:32:55.181Z,1.7
2023-04-03T11:35:57.116Z,1.6
2023-04-03T11:38:59.095Z,1.5
2023-04-03T11:42:10.889Z,1.8
2023-04-03T11:45:02.981Z,1.5
2023-04-03T11:48:13.297Z,1.7
2023-04-03T11:51:06.985Z,1.9
2023-04-03T11:54:08.929Z,1.4
2023-04-03T11:57:10.942Z,1.7
2023-04-03T12:00:12.857Z,1.8
2023-04-03T12:03:14.887Z,1.5
2023-04-03T12:06:16.794Z,1.5
2023-04-03T12:09:18.743Z,1.7
2023-04-03T12:12:20.717Z,1.7
2023-04-03T12:15:22.692Z,1.7
2023-04-03T12:18:24.649Z,1.5
2023-04-03T12:21:26.657Z,1.6
2023-04-03T12:24:28.616Z,1.7
2023-04-03T12:27:30.566Z,1.5
2023-04-03T12:30:32.650Z,1.6
2023-04-03T12:33:34.636Z,1.4
2023-04-03T12:36:36.556Z,1.3
2023-04-03T12:39:38.530Z,1.5
2023-04-03T12:42:40.501Z,1.4
2023-04-03T12:45:42.473Z,1.7
2023-04-03T12:48:44.403Z,1.4
2023-04-03T12:51:46.425Z,1.4
2023-04-03T12:54:48.383Z,1.4
2023-04-03T12:57:50.349Z,1.6
2023-04-03T13:00:52.299Z,1.5
2023-04-03T13:03:54.285Z,1.4
2023-04-03T13:06:56.222Z,1.4
2023-04-03T13:09:58.187Z,1.6
2023-04-03T13:13:00.152Z,1.3
2023-04-03T13:16:02.203Z,1.5
2023-04-03T13:19:04.067Z,1.4
2023-04-03T13:22:06.068Z,1.7
2023-04-03T13:25:07.985Z,1.5
2023-04-03T13:28:13.598Z,1.7
2023-04-03T13:31:11.967Z,2.1
2023-04-03T13:34:13.946Z,1.6
2023-04-03T13:37:15.915Z,2
2023-04-03T13:40:17.858Z,2
2023-04-03T13:43:19.825Z,2.2
2023-04-03T13:46:21.882Z,1.9
2023-04-03T13:49:23.765Z,2.1
2023-04-03T13:52:25.762Z,1.9
2023-04-03T13:55:27.690Z,2.3
2023-04-03T13:58:29.691Z,2.3
2023-04-03T14:01:31.674Z,2.1
2023-04-03T14:04:33.641Z,2
2023-04-03T14:07:35.581Z,2.2
2023-04-03T14:10:37.518Z,1.7
2023-04-03T14:13:39.475Z,1.8
2023-04-03T14:16:41.467Z,1.7
2023-04-03T14:19:43.411Z,1.9
2023-04-03T14:22:45.418Z,1.8
2023-04-03T14:25:47.336Z,1.8
2023-04-03T14:28:49.280Z,2.2
2023-04-03T14:31:55.575Z,1.4
2023-04-03T14:34:53.273Z,1.4
2023-04-03T14:37:55.182Z,1.4
2023-04-03T14:40:59.005Z,1.5
2023-04-03T14:43:59.102Z,1.7
2023-04-03T14:47:01.125Z,1.4
2023-04-03T14:50:03.002Z,1.3
2023-04-03T14:53:04.977Z,1.2
2023-04-03T14:56:07.014Z,1.1
2023-04-03T14:59:09.004Z,1.1
2023-04-03T15:02:11.011Z,1
2023-04-03T15:05:12.899Z,1.1
2023-04-03T15:08:14.871Z,1.1
2023-04-03T15:11:16.838Z,1.2
2023-04-03T15:14:24.232Z,1.1
2023-04-03T15:17:20.788Z,1.3
2023-04-03T15:20:22.745Z,1.4
2023-04-03T15:23:24.711Z,1
2023-04-03T15:26:26.659Z,1.1
2023-04-03T15:29:28.633Z,1
2023-04-03T15:32:32.444Z,1.1
2023-04-03T15:35:32.586Z,1.1
2023-04-03T15:38:34.658Z,0.9
2023-04-03T15:41:36.719Z,1.5
2023-04-03T15:44:38.628Z,1
2023-04-03T15:47:40.688Z,0.9
2023-04-03T15:50:42.725Z,1.1
2023-04-03T15:53:44.743Z,0.9
2023-04-03T15:56:46.800Z,0.8
2023-04-03T15:59:48.796Z,1.1
2023-04-03T16:02:50.803Z,1.1
2023-04-03T16:05:52.760Z,1.1
2023-04-03T16:08:54.734Z,1.1
2023-04-03T16:11:56.694Z,1.1
2023-04-03T16:14:58.683Z,1
2023-04-03T16:18:00.652Z,0.9
2023-04-03T16:21:02.566Z,1
2023-04-03T16:24:04.535Z,1
2023-04-03T16:27:06.533Z,1
2023-04-03T16:30:08.474Z,1.1
2023-04-03T16:33:10.478Z,1.4
2023-04-03T16:36:12.430Z,1.3
2023-04-03T16:39:14.441Z,1
2023-04-03T16:42:16.456Z,1
2023-04-03T16:45:18.391Z,1.1
2023-04-03T16:48:20.405Z,1.1
2023-04-03T16:51:22.403Z,1
2023-04-03T16:54:24.310Z,1.1
2023-04-03T16:57:26.580Z,1
2023-04-03T17:00:28.261Z,1.1
2023-04-03T17:03:30.232Z,1.2
2023-04-03T17:06:32.207Z,1.1
2023-04-03T17:09:34.206Z,1.2
2023-04-03T17:12:36.163Z,1.4
2023-04-03T17:15:38.312Z,1.3
2023-04-03T17:18:40.086Z,1.1
2023-04-03T17:21:42.165Z,1.2
2023-04-03T17:24:44.091Z,1.1
2023-04-03T17:27:46.065Z,1.4
2023-04-03T17:30:48.248Z,1.1
2023-04-03T17:33:50.201Z,0.9
2023-04-03T17:36:52.251Z,1
2023-04-03T17:39:54.219Z,1.3
2023-04-03T17:42:56.183Z,1.2
2023-04-03T17:45:58.230Z,1.3
2023-04-03T17:49:00.292Z,1.1
2023-04-03T17:52:02.248Z,1.2
2023-04-03T17:55:04.209Z,1.2
2023-04-03T17:58:06.177Z,1
2023-04-03T18:01:08.182Z,1
2023-04-03T18:04:10.205Z,1.4
2023-04-03T18:07:12.209Z,1.3
2023-04-03T18:10:14.106Z,1.2
2023-04-03T18:13:17.200Z,1.1
2023-04-03T18:16:18.349Z,1.2
2023-04-03T18:19:22.408Z,1.2
2023-04-03T18:22:22.409Z,1.2
2023-04-03T18:25:24.559Z,1.2
2023-04-03T18:28:26.721Z,1.1
2023-04-03T18:31:29.642Z,1.9
2023-04-03T18:34:30.621Z,1.4
2023-04-03T18:37:32.639Z,1.3
2023-04-03T18:40:34.602Z,1.4
2023-04-03T18:43:36.553Z,1.2
2023-04-03T18:49:40.825Z,1.5
2023-04-03T18:52:42.736Z,1.2
2023-04-03T18:55:44.873Z,1.3
2023-04-03T18:58:46.828Z,1.4
2023-04-03T19:01:48.766Z,1.4
2023-04-03T19:04:50.745Z,1.1
2023-04-03T19:07:52.706Z,1.4
2023-04-03T19:10:54.684Z,1.2
2023-04-03T19:14:04.169Z,1.2
2023-04-03T19:16:58.606Z,1.2
2023-04-03T19:20:00.588Z,1.4
2023-04-03T19:23:02.526Z,1.3
2023-04-03T19:26:04.504Z,1.3
2023-04-03T19:29:06.462Z,1.2
2023-04-03T19:32:09.310Z,1.3
2023-04-03T19:35:10.391Z,1.3
2023-04-03T19:38:12.358Z,1.3
2023-04-03T19:41:14.298Z,1
2023-04-03T19:44:16.439Z,1.5
2023-04-03T19:47:18.250Z,1.5
2023-04-03T19:50:20.204Z,1.3
2023-04-03T19:53:22.167Z,1.3
2023-04-03T19:56:24.106Z,1.5
2023-04-03T19:59:26.128Z,1.5
2023-04-03T20:02:28.148Z,1.2
2023-04-03T20:05:30.066Z,1.2
2023-04-03T20:08:32.008Z,1.6
2023-04-03T20:11:33.961Z,1.3
2023-04-03T20:14:35.925Z,1.3
2023-04-03T20:17:37.959Z,1.5
2023-04-03T20:20:40.091Z,1.5
2023-04-03T20:23:41.836Z,1.2
2023-04-03T20:26:43.877Z,1.5
2023-04-03T20:29:45.803Z,1.5
2023-04-03T20:32:47.773Z,1.1
2023-04-03T20:35:49.724Z,1.2
2023-04-03T20:38:51.716Z,1.3
2023-04-03T20:41:53.653Z,1.3
2023-04-03T20:44:55.613Z,1.4
2023-04-03T20:47:57.641Z,1.4
2023-04-03T20:50:59.558Z,1.1
2023-04-03T20:54:01.494Z,1.3
2023-04-03T20:57:03.485Z,1.5
2023-04-03T21:00:05.454Z,1.2
2023-04-03T21:03:07.486Z,1.3
2023-04-03T21:06:09.354Z,1.2
2023-04-03T21:09:11.329Z,1.3
2023-04-03T21:12:13.307Z,1.3
2023-04-03T21:15:15.286Z,1.6
2023-04-03T21:18:17.239Z,1.3
2023-04-03T21:21:19.204Z,1.5
2023-04-03T21:24:21.154Z,1.2
2023-04-03T21:27:23.122Z,1.2
2023-04-03T21:30:25.092Z,1.3
2023-04-03T21:33:27.046Z,1.3
2023-04-03T21:36:29.001Z,1.2
2023-04-03T21:39:31.046Z,1.4
2023-04-03T21:42:32.916Z,1.4
2023-04-03T21:45:34.880Z,1.4
2023-04-03T21:48:36.831Z,1.4
2023-04-03T21:51:38.819Z,1.7
2023-04-03T21:54:40.778Z,2.4
2023-04-03T21:57:42.791Z,1.4
2023-04-03T22:00:44.782Z,1.6
2023-04-03T22:03:46.688Z,1.3
2023-04-03T22:06:48.719Z,1.6
2023-04-03T22:09:50.689Z,1.7
2023-04-03T22:12:52.624Z,1.4
2023-04-03T22:15:54.614Z,1.4
2023-04-03T22:18:56.552Z,1.5
2023-04-03T22:21:58.542Z,1.7
2023-04-03T22:25:00.624Z,1.4
2023-04-03T22:28:02.470Z,1.7
2023-04-03T22:31:04.465Z,1.8
2023-04-03T22:34:06.440Z,1.6
2023-04-03T22:37:08.442Z,1.6
2023-04-03T22:40:10.415Z,1.4
2023-04-03T22:43:12.387Z,1.6
2023-04-03T22:46:14.360Z,1.5
2023-04-03T22:49:16.300Z,1.7
2023-04-03T22:52:18.256Z,1.7
2023-04-03T22:55:20.217Z,1.4
2023-04-03T22:58:22.181Z,1.3
2023-04-03T23:01:24.248Z,1.8
2023-04-03T23:04:26.122Z,1.8
2023-04-03T23:07:28.049Z,1.2
2023-04-03T23:10:30.489Z,1.5
2023-04-03T23:13:32.033Z,1.4
2023-04-03T23:16:34.022Z,1.8
2023-04-03T23:19:35.954Z,1.5
2023-04-03T23:22:37.996Z,1.5
2023-04-03T23:25:39.876Z,1.7
2023-04-03T23:28:41.963Z,1.4
2023-04-03T23:31:43.877Z,1.6
2023-04-03T23:34:45.848Z,1.7
2023-04-03T23:37:47.807Z,1.8
2023-04-03T23:40:52.796Z,1.7
2023-04-03T23:43:54.787Z,1.7
2023-04-03T23:46:56.915Z,1.4
2023-04-03T23:49:58.879Z,1.3
2023-04-03T23:53:00.903Z,2.1
2023-04-03T23:56:02.788Z,1.4
2023-04-03T23:59:04.779Z,1.6
